Time;durP1;ratioP1;P1;durP2;ratioP2;P2;SDS_P1;SDS_P2;PMS_P1;PMS_P2;Temp;Humidity;BMP_temperature;BMP_pressure;BME280_temperature;BME280_humidity;BME280_pressure;Samples;Min_cycle;Max_cycle;Signal;HPM_P1;HPM_P2
2021/07/29 00:00:09;;;;;;;2.97;2.67;;;20.20;97.40;;;;;;6168520;23;20548;-87
2021/07/29 00:02:36;;;;;;;5.27;2.80;;;20.10;98.10;;;;;;6178661;23;20422;-88
2021/07/29 00:05:03;;;;;;;5.37;2.80;;;20.10;98.20;;;;;;6178180;23;20414;-88
2021/07/29 00:07:30;;;;;;;3.40;2.50;;;20.10;98.50;;;;;;6177574;23;20439;-89
2021/07/29 00:09:57;;;;;;;3.83;2.70;;;20.10;98.50;;;;;;6174811;23;20431;-87
2021/07/29 00:12:24;;;;;;;3.07;2.87;;;20.10;98.80;;;;;;6162426;23;20453;-87
2021/07/29 00:14:51;;;;;;;2.93;2.63;;;20.00;99.10;;;;;;6135872;23;20413;-87
2021/07/29 00:20:04;;;;;;;2.97;2.67;;;19.90;99.50;;;;;;6160819;23;20426;-87
2021/07/29 00:22:31;;;;;;;3.47;2.53;;;19.90;99.80;;;;;;6150168;23;20409;-88
2021/07/29 00:24:58;;;;;;;2.97;2.67;;;20.10;99.90;;;;;;6183062;23;20449;-87
2021/07/29 00:27:24;;;;;;;2.73;2.43;;;20.10;99.70;;;;;;6157171;23;20438;-88
2021/07/29 00:29:56;;;;;;;4.83;2.30;;;20.00;99.40;;;;;;6183262;23;20423;-87
2021/07/29 00:32:23;;;;;;;2.90;2.60;;;20.00;99.20;;;;;;6157120;23;20430;-89
2021/07/29 00:34:49;;;;;;;3.00;2.80;;;20.20;99.00;;;;;;6158165;23;20433;-89
2021/07/29 00:37:16;;;;;;;3.03;2.80;;;20.20;98.70;;;;;;6180731;23;20406;-89
2021/07/29 00:39:43;;;;;;;4.43;3.03;;;20.00;99.10;;;;;;6180572;23;20433;-89
2021/07/29 00:42:10;;;;;;;3.27;2.80;;;20.10;99.30;;;;;;6141829;23;20501;-88
2021/07/29 00:44:38;;;;;;;3.70;3.03;;;20.00;99.00;;;;;;6137539;23;20502;-88
2021/07/29 00:47:05;;;;;;;3.13;2.80;;;20.00;99.20;;;;;;6136563;23;20445;-89
2021/07/29 00:49:36;;;;;;;3.40;2.90;;;20.00;99.10;;;;;;6163729;23;20434;-88
2021/07/29 00:52:03;;;;;;;4.80;2.70;;;19.90;99.70;;;;;;6134995;23;20832;-88
2021/07/29 00:54:30;;;;;;;5.43;3.33;;;19.80;99.90;;;;;;6162113;23;20494;-88
2021/07/29 00:56:59;;;;;;;5.30;3.30;;;19.70;99.90;;;;;;6135673;23;20410;-89
2021/07/29 00:59:25;;;;;;;4.73;3.57;;;19.60;99.90;;;;;;6163239;23;20613;-88
2021/07/29 01:01:54;;;;;;;2.90;2.50;;;19.50;99.90;;;;;;6162864;23;20415;-89
2021/07/29 01:04:21;;;;;;;4.60;2.90;;;19.50;99.90;;;;;;6164490;23;20470;-89
2021/07/29 01:06:48;;;;;;;3.23;2.93;;;19.40;99.90;;;;;;6143070;23;20421;-87
2021/07/29 01:09:15;;;;;;;4.00;3.10;;;19.40;99.90;;;;;;6146532;23;20454;-88
2021/07/29 01:11:58;;;;;;;2.90;2.70;;;19.40;99.90;;;;;;6176643;23;20469;-89
2021/07/29 01:14:25;;;;;;;3.30;3.00;;;19.30;99.90;;;;;;6174542;23;20474;-90
2021/07/29 01:16:51;;;;;;;5.80;3.10;;;19.30;99.90;;;;;;6163023;23;20421;-88
2021/07/29 01:19:21;;;;;;;3.73;2.80;;;19.20;99.90;;;;;;6162477;23;20434;-88
2021/07/29 01:21:51;;;;;;;3.63;2.70;;;19.20;99.90;;;;;;6163166;23;20881;-88
2021/07/29 01:24:18;;;;;;;3.53;2.60;;;19.00;99.90;;;;;;6162546;23;20423;-88
2021/07/29 01:26:44;;;;;;;5.63;2.80;;;18.80;99.90;;;;;;6159707;23;20434;-87
2021/07/29 01:29:11;;;;;;;2.63;2.43;;;18.70;99.90;;;;;;6161235;23;20427;-88
2021/07/29 01:31:38;;;;;;;3.20;2.73;;;18.70;99.90;;;;;;6160895;23;20555;-88
2021/07/29 01:34:06;;;;;;;3.73;3.17;;;18.80;99.90;;;;;;6160801;23;20422;-88
2021/07/29 01:36:32;;;;;;;3.70;2.30;;;18.70;99.90;;;;;;6159845;23;20928;-88
2021/07/29 01:39:01;;;;;;;3.27;2.47;;;18.70;99.90;;;;;;6160501;23;20430;-88
2021/07/29 01:41:28;;;;;;;5.20;2.67;;;18.70;99.90;;;;;;6160186;23;20829;-88
2021/07/29 01:43:55;;;;;;;3.43;2.40;;;18.60;99.90;;;;;;6161029;23;20421;-88
2021/07/29 01:46:22;;;;;;;3.00;2.73;;;18.60;99.90;;;;;;6160088;23;20829;-86
2021/07/29 01:48:49;;;;;;;3.73;2.20;;;18.70;99.90;;;;;;6160836;23;20827;-87
2021/07/29 01:51:15;;;;;;;2.10;1.80;;;18.70;99.90;;;;;;6161166;23;20414;-89
2021/07/29 01:53:42;;;;;;;2.57;2.10;;;18.70;99.90;;;;;;6164854;23;20418;-88
2021/07/29 01:56:09;;;;;;;4.87;3.00;;;18.60;99.90;;;;;;6161379;23;20727;-87
2021/07/29 01:58:36;;;;;;;3.63;2.63;;;18.60;99.90;;;;;;6160958;23;20430;-88
2021/07/29 02:01:03;;;;;;;3.33;2.67;;;18.60;99.90;;;;;;6162987;23;20462;-87
2021/07/29 02:03:30;;;;;;;2.90;2.50;;;18.60;99.90;;;;;;6170306;23;20407;-88
2021/07/29 02:06:02;;;;;;;2.57;2.20;;;18.70;99.90;;;;;;6169015;23;20410;-88
2021/07/29 02:08:29;;;;;;;4.40;2.90;;;19.00;99.90;;;;;;6167204;23;20423;-88
2021/07/29 02:11:03;;;;;;;2.40;2.20;;;19.30;99.90;;;;;;6174354;23;20422;-89
2021/07/29 02:13:30;;;;;;;2.70;2.50;;;19.00;99.90;;;;;;6178125;23;20414;-88
2021/07/29 02:15:56;;;;;;;3.47;2.30;;;18.90;99.90;;;;;;6178274;23;20470;-89
2021/07/29 02:18:23;;;;;;;3.27;2.80;;;18.80;99.90;;;;;;6145988;23;20446;-88
2021/07/29 02:20:51;;;;;;;3.77;2.83;;;18.80;99.90;;;;;;6164747;23;20493;-87
2021/07/29 02:23:17;;;;;;;3.80;2.83;;;18.80;99.90;;;;;;6135735;23;20411;-87
2021/07/29 02:25:44;;;;;;;4.80;2.87;;;19.10;99.90;;;;;;6134091;23;20440;-86
2021/07/29 02:28:11;;;;;;;3.43;3.00;;;19.10;99.90;;;;;;6136065;23;20497;-88
2021/07/29 02:30:37;;;;;;;3.90;3.50;;;19.00;99.90;;;;;;6182437;23;20418;-90
2021/07/29 02:33:04;;;;;;;4.73;2.97;;;18.90;99.90;;;;;;6182884;23;20469;-91
2021/07/29 02:35:31;;;;;;;3.70;3.07;;;18.80;99.90;;;;;;6155589;23;20459;-89
2021/07/29 02:37:58;;;;;;;6.53;3.90;;;18.80;99.90;;;;;;6156340;23;20439;-89
2021/07/29 02:40:25;;;;;;;4.30;3.67;;;18.80;99.90;;;;;;6155715;23;20419;-90
2021/07/29 02:42:51;;;;;;;4.73;3.40;;;18.60;99.90;;;;;;6137051;23;20417;-88
2021/07/29 02:45:18;;;;;;;5.80;4.40;;;18.70;99.90;;;;;;6137445;23;20430;-88
2021/07/29 02:47:45;;;;;;;5.60;3.90;;;18.60;99.90;;;;;;6163492;23;20859;-88
2021/07/29 02:50:12;;;;;;;6.13;4.40;;;18.80;99.90;;;;;;6162588;23;20506;-88
2021/07/29 02:52:41;;;;;;;5.43;3.77;;;18.70;99.90;;;;;;6134983;23;20498;-88
2021/07/29 02:55:08;;;;;;;4.93;4.43;;;18.60;99.90;;;;;;6134962;23;20489;-88
2021/07/29 02:57:36;;;;;;;5.20;4.17;;;18.60;99.90;;;;;;6135332;23;20490;-88
2021/07/29 03:00:04;;;;;;;5.30;3.43;;;18.50;99.90;;;;;;6135901;23;20454;-87
2021/07/29 03:02:31;;;;;;;6.43;3.60;;;18.50;99.90;;;;;;6157183;23;20406;-90
2021/07/29 03:04:59;;;;;;;3.67;3.20;;;18.50;99.90;;;;;;6178938;23;20411;-89
2021/07/29 03:07:26;;;;;;;6.60;3.63;;;18.40;99.90;;;;;;6169982;23;20438;-88
2021/07/29 03:09:53;;;;;;;4.90;3.67;;;18.30;99.90;;;;;;6142430;23;20434;-89
2021/07/29 03:12:20;;;;;;;5.60;3.50;;;18.40;99.90;;;;;;6138386;23;20509;-88
2021/07/29 03:14:47;;;;;;;4.33;3.00;;;18.30;99.90;;;;;;6164604;23;20787;-88
2021/07/29 03:17:14;;;;;;;6.10;3.50;;;18.40;99.90;;;;;;6136808;23;20502;-88
2021/07/29 03:19:42;;;;;;;5.20;4.17;;;18.40;99.90;;;;;;6135880;23;20493;-89
2021/07/29 03:22:11;;;;;;;4.43;3.37;;;18.30;99.90;;;;;;6162413;23;20410;-88
2021/07/29 03:24:38;;;;;;;3.60;3.30;;;18.30;99.90;;;;;;6139152;23;20434;-89
2021/07/29 03:27:05;;;;;;;5.37;3.80;;;18.20;99.90;;;;;;6161963;23;20501;-88
2021/07/29 03:29:31;;;;;;;5.43;3.53;;;18.10;99.90;;;;;;6136988;23;20950;-88
2021/07/29 03:31:58;;;;;;;3.90;3.27;;;18.10;99.90;;;;;;6162069;23;20435;-88
2021/07/29 03:34:25;;;;;;;3.60;3.30;;;18.10;99.90;;;;;;6162192;23;20418;-87
2021/07/29 03:36:52;;;;;;;3.23;3.00;;;18.20;99.90;;;;;;6135355;23;20478;-87
2021/07/29 03:39:18;;;;;;;3.93;3.53;;;18.20;99.90;;;;;;6161834;23;20431;-87
2021/07/29 03:41:45;;;;;;;4.57;3.53;;;18.20;99.90;;;;;;6135645;23;20442;-87
2021/07/29 03:44:12;;;;;;;6.30;3.43;;;18.10;99.90;;;;;;6162571;23;20720;-88
2021/07/29 03:46:42;;;;;;;4.90;3.43;;;18.10;99.90;;;;;;6134756;23;20418;-89
2021/07/29 03:49:12;;;;;;;5.90;3.60;;;18.10;99.90;;;;;;6161889;23;20607;-89
2021/07/29 03:51:39;;;;;;;3.30;3.00;;;18.00;99.90;;;;;;6135213;23;20445;-88
2021/07/29 03:54:05;;;;;;;4.30;3.60;;;18.00;99.90;;;;;;6136705;23;20818;-88
2021/07/29 03:56:32;;;;;;;3.53;3.23;;;18.20;99.90;;;;;;6139182;23;20718;-88
2021/07/29 03:58:59;;;;;;;3.27;2.93;;;18.30;99.90;;;;;;6180265;23;20441;-89
2021/07/29 04:01:27;;;;;;;4.00;3.13;;;18.30;99.90;;;;;;6181664;23;20426;-88
2021/07/29 04:03:54;;;;;;;3.40;3.07;;;18.50;99.90;;;;;;6129737;23;20407;-87
2021/07/29 04:06:21;;;;;;;4.40;3.33;;;18.30;99.90;;;;;;6179660;23;20474;-88
2021/07/29 04:08:48;;;;;;;4.87;4.20;;;18.30;99.90;;;;;;6179743;23;20427;-89
2021/07/29 04:11:15;;;;;;;3.70;2.90;;;18.30;99.90;;;;;;6156843;23;20462;-89
2021/07/29 04:13:42;;;;;;;5.40;3.10;;;18.40;99.90;;;;;;6170578;23;20443;-90
2021/07/29 04:16:09;;;;;;;5.20;3.00;;;18.60;99.90;;;;;;6181692;23;20446;-88
2021/07/29 04:18:37;;;;;;;3.73;3.10;;;18.60;99.90;;;;;;6180833;23;20481;-90
2021/07/29 04:21:03;;;;;;;4.33;3.57;;;18.70;99.90;;;;;;6181233;23;20415;-89
2021/07/29 04:23:30;;;;;;;3.70;3.00;;;18.60;99.90;;;;;;6180744;23;20423;-89
2021/07/29 04:25:57;;;;;;;3.67;2.60;;;18.40;99.90;;;;;;6180284;23;20429;-88
2021/07/29 04:28:26;;;;;;;5.60;3.10;;;18.30;99.90;;;;;;6179034;23;20442;-90
2021/07/29 04:30:53;;;;;;;4.60;3.70;;;18.30;99.90;;;;;;6171104;23;20415;-89
2021/07/29 04:33:20;;;;;;;4.33;3.63;;;18.50;99.90;;;;;;6159575;23;20794;-88
2021/07/29 04:35:47;;;;;;;4.70;3.00;;;18.70;99.90;;;;;;6157667;23;20498;-89
2021/07/29 04:38:14;;;;;;;4.83;3.13;;;18.70;99.90;;;;;;6158455;23;20427;-88
2021/07/29 04:40:41;;;;;;;4.93;3.37;;;18.80;99.90;;;;;;6165991;23;20483;-90
2021/07/29 04:43:08;;;;;;;5.70;4.10;;;18.70;99.90;;;;;;6171545;23;20399;-89
2021/07/29 04:45:35;;;;;;;4.50;3.50;;;18.80;99.90;;;;;;6158075;23;20398;-89
2021/07/29 04:48:10;;;;;;;6.27;3.47;;;18.80;99.90;;;;;;6157670;23;20407;-88
2021/07/29 04:50:37;;;;;;;4.00;3.13;;;18.70;99.90;;;;;;6157816;23;20387;-89
2021/07/29 04:53:04;;;;;;;5.30;3.37;;;18.60;99.90;;;;;;6157316;23;20545;-89
2021/07/29 04:55:31;;;;;;;5.03;3.77;;;18.60;99.90;;;;;;6156712;23;20486;-89
2021/07/29 04:58:06;;;;;;;5.90;4.13;;;18.60;99.90;;;;;;6157672;23;20427;-88
2021/07/29 05:00:34;;;;;;;4.03;3.63;;;18.80;99.90;;;;;;6159609;23;20486;-88
2021/07/29 05:03:01;;;;;;;6.67;3.77;;;18.60;99.90;;;;;;6160779;23;20411;-89
2021/07/29 05:05:28;;;;;;;6.00;3.83;;;18.50;99.90;;;;;;6161058;23;20776;-88
2021/07/29 05:07:55;;;;;;;9.70;4.27;;;18.50;99.90;;;;;;6159249;23;20411;-89
2021/07/29 05:10:23;;;;;;;6.30;4.43;;;18.70;99.90;;;;;;6157006;23;20410;-89
2021/07/29 05:12:50;;;;;;;6.20;4.50;;;18.90;99.90;;;;;;6159092;23;20445;-88
2021/07/29 05:15:17;;;;;;;6.57;4.37;;;18.90;99.90;;;;;;6159686;23;20940;-88
2021/07/29 05:17:43;;;;;;;4.57;3.83;;;18.90;99.90;;;;;;6159918;23;20425;-87
2021/07/29 05:20:13;;;;;;;5.97;3.87;;;18.90;99.90;;;;;;6158706;23;20925;-89
2021/07/29 05:22:45;;;;;;;5.10;4.17;;;18.80;99.90;;;;;;6160873;23;20493;-88
2021/07/29 05:25:22;;;;;;;4.70;3.93;;;18.80;99.90;;;;;;6160693;23;20410;-89
2021/07/29 05:27:50;;;;;;;8.23;3.90;;;18.90;99.90;;;;;;6161202;23;20453;-87
2021/07/29 05:30:19;;;;;;;5.40;3.67;;;18.80;99.90;;;;;;6173331;23;20422;-90
2021/07/29 05:33:00;;;;;;;;;;;;;;;;;;;;;
2021/07/29 05:35:30;;;;;;;5.63;3.50;;;18.90;99.90;;;;;;6179294;23;20410;-90
2021/07/29 05:37:57;;;;;;;4.70;4.00;;;18.90;99.90;;;;;;6178219;23;20485;-90
2021/07/29 05:40:24;;;;;;;5.00;4.17;;;19.10;99.90;;;;;;6176674;23;20478;-89
2021/07/29 05:42:52;;;;;;;7.73;4.67;;;18.90;99.90;;;;;;6162325;23;20465;-88
2021/07/29 05:45:20;;;;;;;6.20;3.90;;;18.90;99.90;;;;;;6165964;23;20426;-87
2021/07/29 05:47:47;;;;;;;5.33;3.53;;;19.20;99.90;;;;;;6165114;23;20407;-88
2021/07/29 05:50:16;;;;;;;4.47;4.07;;;19.40;99.90;;;;;;6164737;23;20620;-89
2021/07/29 05:52:43;;;;;;;5.20;4.10;;;19.40;99.90;;;;;;6163005;23;20443;-88
2021/07/29 05:55:10;;;;;;;6.23;3.90;;;19.50;99.90;;;;;;6166876;23;20406;-88
2021/07/29 05:57:39;;;;;;;6.67;3.30;;;19.20;99.90;;;;;;6167345;23;20411;-89
2021/07/29 06:00:07;;;;;;;4.73;3.10;;;19.00;99.90;;;;;;6179888;23;20434;-89
2021/07/29 06:02:34;;;;;;;4.93;2.73;;;19.20;99.90;;;;;;6178413;23;20473;-90
2021/07/29 06:05:03;;;;;;;3.10;2.67;;;19.10;99.90;;;;;;6178171;23;20435;-90
2021/07/29 06:07:33;;;;;;;7.93;4.80;;;19.00;99.90;;;;;;6176711;23;20394;-87
2021/07/29 06:10:01;;;;;;;6.43;3.00;;;19.00;99.90;;;;;;6172248;23;20411;-89
2021/07/29 06:12:27;;;;;;;3.80;2.30;;;19.00;99.90;;;;;;6180516;23;20512;-89
2021/07/29 06:14:55;;;;;;;6.47;2.40;;;19.10;99.90;;;;;;6151629;23;20411;-89
2021/07/29 06:17:27;;;;;;;5.27;2.67;;;19.10;99.80;;;;;;6141332;23;20502;-87
2021/07/29 06:19:55;;;;;;;3.90;2.50;;;19.20;99.60;;;;;;6138500;23;20466;-89
2021/07/29 06:22:22;;;;;;;4.03;2.30;;;19.20;99.10;;;;;;6137507;23;20419;-88
2021/07/29 06:24:49;;;;;;;3.93;2.53;;;19.30;98.90;;;;;;6137430;23;20407;-87
2021/07/29 06:27:16;;;;;;;6.17;2.80;;;19.40;98.70;;;;;;6165324;23;20415;-89
2021/07/29 06:29:43;;;;;;;4.17;2.20;;;19.40;98.40;;;;;;6142493;23;20431;-88
2021/07/29 06:32:11;;;;;;;5.70;2.47;;;19.50;97.90;;;;;;6142804;23;20453;-85
2021/07/29 06:34:38;;;;;;;3.80;2.50;;;19.50;97.40;;;;;;6141901;23;20413;-88
2021/07/29 06:37:05;;;;;;;4.60;2.57;;;19.80;96.10;;;;;;6150180;23;20490;-89
2021/07/29 06:39:32;;;;;;;3.53;1.87;;;19.60;96.40;;;;;;6155995;23;20434;-88
2021/07/29 06:41:59;;;;;;;2.97;2.67;;;19.50;96.50;;;;;;6180923;23;20406;-89
2021/07/29 06:44:28;;;;;;;5.10;2.30;;;19.50;96.50;;;;;;6156116;23;20417;-87
2021/07/29 06:46:57;;;;;;;5.20;2.30;;;19.70;96.70;;;;;;6147520;23;20459;-88
2021/07/29 06:49:28;;;;;;;3.70;2.10;;;20.10;95.40;;;;;;6174643;23;20469;-89
2021/07/29 06:51:55;;;;;;;4.13;2.33;;;20.10;95.10;;;;;;6178837;23;20399;-89
2021/07/29 06:54:22;;;;;;;4.10;2.17;;;20.00;95.50;;;;;;6181556;23;20437;-90
2021/07/29 06:56:49;;;;;;;5.03;2.20;;;19.90;95.30;;;;;;6180000;23;20418;-88
2021/07/29 06:59:15;;;;;;;3.03;2.00;;;20.00;95.10;;;;;;6181577;23;20427;-90
2021/07/29 07:01:42;;;;;;;4.30;1.93;;;20.30;94.70;;;;;;6179917;23;20418;-89
2021/07/29 07:04:09;;;;;;;4.07;2.00;;;20.30;93.80;;;;;;6152559;23;20421;-88
2021/07/29 07:06:38;;;;;;;5.27;2.00;;;20.10;93.90;;;;;;6142843;23;20422;-89
2021/07/29 07:09:05;;;;;;;3.37;1.97;;;20.00;93.70;;;;;;6165857;23;20435;-88
2021/07/29 07:11:33;;;;;;;3.33;2.10;;;19.90;94.20;;;;;;6164289;23;20407;-88
2021/07/29 07:14:09;;;;;;;5.00;2.60;;;20.10;94.30;;;;;;6156099;23;20518;-88
2021/07/29 07:16:43;;;;;;;4.27;2.33;;;20.20;94.10;;;;;;6163453;23;20821;-88
2021/07/29 07:19:10;;;;;;;5.17;2.87;;;20.30;93.80;;;;;;6163678;23;20443;-87
2021/07/29 07:21:38;;;;;;;3.40;2.17;;;20.30;93.80;;;;;;6181201;23;20418;-88
2021/07/29 07:24:06;;;;;;;4.80;2.40;;;20.30;93.90;;;;;;6183331;23;20437;-88
2021/07/29 07:26:33;;;;;;;3.23;2.03;;;20.40;93.60;;;;;;6180826;23;20483;-88
2021/07/29 07:29:00;;;;;;;6.60;2.23;;;20.60;93.10;;;;;;6181060;23;20439;-90
2021/07/29 07:31:27;;;;;;;3.40;1.70;;;20.60;93.20;;;;;;6178958;23;20414;-88
2021/07/29 07:33:54;;;;;;;4.33;2.30;;;20.50;93.10;;;;;;6178635;23;20427;-89
2021/07/29 07:36:21;;;;;;;3.40;1.83;;;20.50;93.40;;;;;;6170426;23;20403;-88
2021/07/29 07:38:52;;;;;;;4.27;2.23;;;20.50;93.40;;;;;;6164764;23;20466;-88
2021/07/29 07:41:20;;;;;;;5.17;1.97;;;20.40;93.40;;;;;;6166984;23;20407;-87
2021/07/29 07:43:46;;;;;;;5.97;1.90;;;20.50;93.70;;;;;;6161879;23;20425;-87
2021/07/29 07:46:13;;;;;;;4.97;2.83;;;20.80;93.20;;;;;;6161238;23;20857;-89
2021/07/29 07:48:47;;;;;;;4.50;2.10;;;20.70;93.20;;;;;;6167294;23;20447;-89
2021/07/29 07:51:37;;;;;;;4.90;2.10;;;20.70;93.50;;;;;;6154901;23;20406;-88
2021/07/29 07:54:12;;;;;;;2.80;1.77;;;20.80;93.20;;;;;;6166200;23;20438;-87
2021/07/29 07:57:04;;;;;;;;;;;;;;;;;;;;;
2021/07/29 07:59:40;;;;;;;2.30;2.03;;;20.80;92.80;;;;;;6166264;23;20438;-88
2021/07/29 08:02:08;;;;;;;5.60;2.17;;;21.40;91.80;;;;;;6163139;23;20695;-89
2021/07/29 08:04:35;;;;;;;3.97;2.33;;;21.80;90.60;;;;;;6165939;23;20419;-88
2021/07/29 08:07:02;;;;;;;2.83;1.70;;;21.70;89.50;;;;;;6168120;23;20411;-88
2021/07/29 08:09:32;;;;;;;4.20;1.67;;;21.50;89.30;;;;;;6163659;23;20970;-87
2021/07/29 08:12:04;;;;;;;3.00;1.70;;;21.40;89.80;;;;;;6163296;23;20442;-89
2021/07/29 08:14:31;;;;;;;2.97;2.23;;;21.50;90.10;;;;;;6162040;23;20493;-89
2021/07/29 08:16:58;;;;;;;4.07;2.20;;;21.60;89.30;;;;;;6168196;23;20476;-88
2021/07/29 08:19:25;;;;;;;4.83;2.00;;;21.70;88.00;;;;;;6166458;23;20518;-87
2021/07/29 08:21:55;;;;;;;3.67;1.90;;;21.50;87.50;;;;;;6167986;23;20497;-88
2021/07/29 08:24:22;;;;;;;3.40;1.87;;;21.50;88.00;;;;;;6174196;23;20395;-89
2021/07/29 08:26:51;;;;;;;3.53;1.93;;;22.30;86.10;;;;;;6170465;23;20411;-87
2021/07/29 08:29:19;;;;;;;2.90;1.97;;;23.10;83.60;;;;;;6167022;23;20431;-87
2021/07/29 08:31:46;;;;;;;3.33;1.70;;;23.80;79.30;;;;;;6166612;23;20430;-88
2021/07/29 08:34:13;;;;;;;1.93;1.47;;;23.90;78.50;;;;;;6166426;23;20510;-88
2021/07/29 08:36:42;;;;;;;4.07;1.60;;;25.50;73.40;;;;;;6178483;23;20413;-88
2021/07/29 08:39:11;;;;;;;2.33;1.90;;;26.20;70.00;;;;;;6179800;23;20426;-89
2021/07/29 08:41:44;;;;;;;2.27;1.80;;;27.70;64.10;;;;;;6180194;23;20465;-88
2021/07/29 08:44:11;;;;;;;3.30;1.70;;;27.50;61.30;;;;;;6180517;23;20394;-90
2021/07/29 08:46:43;;;;;;;2.23;1.30;;;27.00;59.70;;;;;;6165616;23;20449;-89
2021/07/29 08:49:11;;;;;;;1.83;1.30;;;27.60;58.10;;;;;;6160288;23;20918;-89
2021/07/29 08:51:40;;;;;;;2.17;1.43;;;27.10;56.10;;;;;;6132742;23;20400;-88
2021/07/29 08:54:13;;;;;;;2.57;1.83;;;25.20;59.30;;;;;;6159408;23;20533;-87
2021/07/29 08:56:39;;;;;;;3.07;1.93;;;23.90;64.80;;;;;;6158099;23;20398;-88
2021/07/29 08:59:07;;;;;;;2.80;1.57;;;25.30;63.50;;;;;;6158302;23;20497;-88
2021/07/29 09:01:53;;;;;;;3.47;1.70;;;26.80;57.70;;;;;;6160884;23;20407;-89
2021/07/29 09:04:20;;;;;;;5.57;1.80;;;27.30;54.80;;;;;;6158868;23;20828;-88
2021/07/29 09:07:02;;;;;;;2.40;1.63;;;27.50;53.90;;;;;;6159455;23;20411;-88
2021/07/29 09:09:46;;;;;;;1.37;1.23;;;27.90;53.10;;;;;;6156271;23;20438;-89
2021/07/29 09:12:21;;;;;;;3.47;1.40;;;29.40;49.60;;;;;;6158189;23;20477;-89
2021/07/29 09:14:49;;;;;;;1.23;1.13;;;29.00;49.90;;;;;;6130793;23;20438;-90
2021/07/29 09:17:17;;;;;;;2.40;1.50;;;29.60;49.70;;;;;;6132521;23;20470;-89
2021/07/29 09:19:53;;;;;;;2.50;1.67;;;29.70;47.90;;;;;;6159544;23;20815;-89
2021/07/29 09:22:29;;;;;;;2.37;1.20;;;29.70;47.70;;;;;;6135699;23;20418;-88
2021/07/29 09:25:02;;;;;;;2.13;1.17;;;29.50;46.80;;;;;;6158428;23;20762;-88
2021/07/29 09:27:38;;;;;;;3.00;1.27;;;30.10;45.50;;;;;;6133602;23;20457;-89
2021/07/29 09:30:27;;;;;;;2.07;1.30;;;30.60;43.70;;;;;;6160287;23;20434;-88
2021/07/29 09:33:13;;;;;;;2.83;1.50;;;30.20;44.00;;;;;;6159872;23;20445;-89
2021/07/29 09:35:44;;;;;;;3.50;1.27;;;30.60;43.80;;;;;;6161256;23;20387;-88
2021/07/29 09:38:46;;;;;;;1.83;1.03;;;30.20;44.40;;;;;;6158315;23;20441;-88
2021/07/29 09:41:27;;;;;;;2.13;1.30;;;30.50;44.30;;;;;;5992087;23;20415;-88
2021/07/29 09:43:54;;;;;;;2.33;1.20;;;30.30;43.60;;;;;;6120120;23;20898;-88
2021/07/29 09:46:25;;;;;;;2.73;1.27;;;28.50;44.30;;;;;;6136664;23;20414;-87
2021/07/29 09:48:53;;;;;;;2.87;1.20;;;27.70;46.30;;;;;;6139466;23;20537;-88
2021/07/29 09:51:23;;;;;;;2.53;1.20;;;28.10;46.60;;;;;;6134657;23;20415;-89
2021/07/29 09:53:54;;;;;;;2.93;1.13;;;29.60;44.60;;;;;;6135469;23;20442;-88
2021/07/29 09:56:21;;;;;;;2.77;0.90;;;30.00;43.30;;;;;;6135140;23;20419;-88
2021/07/29 09:59:07;;;;;;;1.60;1.20;;;31.10;41.70;;;;;;6140025;23;20478;-88
2021/07/29 10:01:35;;;;;;;2.13;1.00;;;30.80;41.00;;;;;;6133797;23;20900;-88
2021/07/29 10:04:04;;;;;;;4.37;1.80;;;30.40;41.00;;;;;;6133049;23;20415;-88
2021/07/29 10:06:34;;;;;;;2.73;1.10;;;30.50;41.20;;;;;;6138979;23;21036;-88
2021/07/29 10:09:10;;;;;;;2.40;1.40;;;29.80;42.80;;;;;;6137445;23;20752;-88
2021/07/29 10:11:41;;;;;;;1.53;1.00;;;29.60;42.80;;;;;;6162428;23;20470;-89
2021/07/29 10:14:12;;;;;;;2.00;1.27;;;29.20;43.70;;;;;;6133793;23;20703;-88
2021/07/29 10:16:52;;;;;;;2.30;1.60;;;30.20;41.00;;;;;;6113057;23;20750;-89
2021/07/29 10:19:19;;;;;;;3.27;1.90;;;28.50;43.00;;;;;;6135779;23;20438;-88
2021/07/29 10:21:48;;;;;;;1.80;1.50;;;27.20;45.40;;;;;;6135056;23;20402;-88
2021/07/29 10:24:21;;;;;;;2.70;1.60;;;26.10;47.20;;;;;;6141057;23;20415;-90
2021/07/29 10:27:01;;;;;;;4.87;1.93;;;25.50;49.00;;;;;;6141712;23;20759;-90
2021/07/29 10:29:30;;;;;;;2.20;1.40;;;25.00;50.50;;;;;;6145987;23;20521;-90
2021/07/29 10:32:13;;;;;;;3.30;1.57;;;24.60;51.20;;;;;;6159478;23;20399;-89
2021/07/29 10:34:40;;;;;;;4.37;1.47;;;24.30;52.20;;;;;;6138191;23;20496;-88
2021/07/29 10:37:08;;;;;;;3.43;1.70;;;24.30;52.70;;;;;;6162275;23;20399;-88
2021/07/29 10:39:58;;;;;;;5.40;1.60;;;24.20;53.50;;;;;;6141238;23;20427;-87
2021/07/29 10:42:26;;;;;;;3.37;1.77;;;24.00;54.40;;;;;;6134837;23;20380;-88
2021/07/29 10:44:53;;;;;;;3.00;2.10;;;23.90;54.80;;;;;;6162624;23;20415;-89
2021/07/29 10:47:37;;;;;;;4.40;1.80;;;23.80;55.40;;;;;;6148982;23;20431;-87
2021/07/29 10:50:09;;;;;;;2.40;1.60;;;23.80;55.60;;;;;;6156734;23;20429;-87
2021/07/29 10:52:37;;;;;;;2.30;1.40;;;24.40;55.40;;;;;;6156436;23;20418;-87
2021/07/29 10:55:07;;;;;;;4.30;1.83;;;25.20;53.30;;;;;;6182801;23;20465;-87
2021/07/29 10:57:34;;;;;;;2.90;1.30;;;25.80;52.10;;;;;;6183664;23;20400;-87
2021/07/29 11:00:01;;;;;;;3.07;1.43;;;25.80;51.20;;;;;;6184080;23;20513;-88
2021/07/29 11:02:41;;;;;;;2.97;1.80;;;25.50;51.30;;;;;;6158652;23;20407;-87
2021/07/29 11:05:10;;;;;;;3.30;1.70;;;25.10;52.50;;;;;;6158155;23;20406;-86
2021/07/29 11:07:43;;;;;;;2.00;1.60;;;25.10;52.00;;;;;;6158415;23;20498;-89
2021/07/29 11:10:12;;;;;;;2.70;1.60;;;24.50;52.70;;;;;;6183452;23;20439;-89
2021/07/29 11:12:40;;;;;;;4.10;1.60;;;24.30;53.80;;;;;;6182747;23;20414;-89
2021/07/29 11:15:08;;;;;;;5.33;1.97;;;24.90;53.90;;;;;;6157783;23;20435;-87
2021/07/29 11:17:37;;;;;;;3.43;1.50;;;25.70;52.90;;;;;;6170428;23;20443;-89
2021/07/29 11:20:05;;;;;;;3.43;1.93;;;25.90;50.90;;;;;;6156771;23;20517;-88
2021/07/29 11:22:46;;;;;;;3.30;1.70;;;26.00;50.70;;;;;;6153959;23;20391;-88
2021/07/29 11:25:15;;;;;;;2.10;1.30;;;26.20;50.10;;;;;;6152115;23;20448;-89
2021/07/29 11:27:42;;;;;;;3.53;1.57;;;26.60;48.70;;;;;;6153454;23;20427;-88
2021/07/29 11:30:11;;;;;;;4.13;1.80;;;27.30;47.40;;;;;;6137163;23;20526;-88
2021/07/29 11:32:45;;;;;;;1.97;1.20;;;27.40;46.70;;;;;;6154947;23;20411;-88
2021/07/29 11:35:17;;;;;;;3.30;1.70;;;27.30;46.50;;;;;;6184696;23;20444;-89
2021/07/29 11:40:28;;;;;;;2.40;1.30;;;26.80;47.30;;;;;;6182064;23;20497;-88
2021/07/29 11:42:55;;;;;;;2.13;1.93;;;25.90;48.70;;;;;;6169533;23;20414;-88
2021/07/29 11:45:32;;;;;;;3.33;1.60;;;25.70;49.90;;;;;;6171195;23;20674;-88
2021/07/29 11:48:00;;;;;;;2.70;1.40;;;25.80;49.90;;;;;;6162263;23;20455;-89
2021/07/29 11:50:42;;;;;;;3.33;1.90;;;25.80;49.80;;;;;;6149023;23;20467;-87
2021/07/29 11:53:10;;;;;;;2.93;1.70;;;25.40;49.70;;;;;;6149371;23;20408;-88
2021/07/29 11:55:38;;;;;;;3.67;1.67;;;25.00;50.00;;;;;;6153685;23;20518;-88
2021/07/29 11:58:11;;;;;;;2.83;1.53;;;24.90;50.50;;;;;;6152945;23;20384;-89
2021/07/29 12:00:38;;;;;;;4.10;1.57;;;25.00;49.40;;;;;;6150185;23;20550;-88
2021/07/29 12:03:06;;;;;;;4.97;2.03;;;24.80;49.50;;;;;;6145051;23;20484;-89
2021/07/29 12:05:34;;;;;;;2.73;1.60;;;24.60;50.20;;;;;;6128182;23;20419;-89
2021/07/29 12:10:35;;;;;;;3.07;1.50;;;24.40;50.70;;;;;;6182457;23;20467;-86
2021/07/29 12:13:03;;;;;;;4.03;1.90;;;24.30;51.10;;;;;;6157829;23;20425;-88
2021/07/29 12:15:30;;;;;;;3.97;1.93;;;24.20;51.60;;;;;;6183378;23;20430;-89
2021/07/29 12:18:16;;;;;;;8.70;2.33;;;24.20;52.20;;;;;;6157813;23;20411;-90
2021/07/29 12:20:46;;;;;;;4.40;2.00;;;24.40;52.20;;;;;;6182935;23;20406;-88
2021/07/29 12:23:14;;;;;;;3.10;1.90;;;24.40;51.90;;;;;;6182260;23;20419;-89
2021/07/29 12:25:42;;;;;;;1.90;1.40;;;24.50;52.30;;;;;;6181977;23;20426;-89
2021/07/29 12:28:09;;;;;;;3.17;1.97;;;24.60;52.70;;;;;;6183037;23;20402;-89
2021/07/29 12:30:39;;;;;;;2.30;1.70;;;24.70;52.20;;;;;;6182712;23;20423;-90
2021/07/29 12:33:22;;;;;;;6.30;2.13;;;24.80;52.80;;;;;;6180960;23;20434;-88
2021/07/29 12:35:59;;;;;;;3.00;1.70;;;25.00;52.50;;;;;;6180898;23;20510;-89
2021/07/29 12:38:38;;;;;;;1.90;1.80;;;25.10;52.10;;;;;;6181911;23;20429;-88
2021/07/29 12:41:06;;;;;;;4.40;1.70;;;24.90;51.70;;;;;;6179212;23;20403;-88
2021/07/29 12:43:34;;;;;;;1.90;1.70;;;24.90;52.30;;;;;;6179787;23;20386;-89
2021/07/29 12:46:07;;;;;;;2.77;1.70;;;24.80;52.60;;;;;;6177333;23;20411;-87
2021/07/29 12:49:04;;;;;;;4.63;2.50;;;24.70;52.30;;;;;;6174310;23;20434;-88
2021/07/29 12:51:38;;;;;;;4.43;2.30;;;24.50;52.70;;;;;;6165511;23;20402;-88
2021/07/29 12:54:07;;;;;;;4.30;1.83;;;24.60;52.40;;;;;;6162980;23;20477;-87
2021/07/29 12:56:37;;;;;;;4.70;2.13;;;24.70;52.40;;;;;;6159170;23;20466;-87
2021/07/29 12:59:08;;;;;;;3.33;1.93;;;25.00;52.10;;;;;;6160920;23;20431;-88
2021/07/29 13:01:39;;;;;;;2.27;1.70;;;25.30;51.40;;;;;;6162114;23;20406;-87
2021/07/29 13:04:12;;;;;;;4.73;1.60;;;25.30;50.80;;;;;;6160298;23;20442;-88
2021/07/29 13:06:42;;;;;;;3.50;2.10;;;25.30;50.10;;;;;;6136217;23;20433;-88